Time;durP1;ratioP1;P1;durP2;ratioP2;P2;SDS_P1;SDS_P2;PMS_P1;PMS_P2;Temp;Humidity;BMP_temperature;BMP_pressure;BME280_temperature;BME280_humidity;BME280_pressure;Samples;Min_cycle;Max_cycle;Signal;HPM_P1;HPM_P2
2022/06/19 00:00:48;;;;;;;0.50;0.20;;;;;;;23.53;68.29;99490.78;4992761;28;20500;-53
2022/06/19 00:03:28;;;;;;;0.50;0.20;;;;;;;23.57;68.94;99494.06;4995481;28;20539;-54
2022/06/19 00:05:55;;;;;;;0.50;0.20;;;;;;;23.53;69.23;99501.63;4995313;28;20544;-53
2022/06/19 00:08:22;;;;;;;0.40;0.20;;;;;;;23.52;69.19;99502.63;4982315;28;20488;-54
2022/06/19 00:10:48;;;;;;;0.50;0.20;;;;;;;23.31;70.14;99494.69;4994024;28;21014;-54
2022/06/19 00:13:16;;;;;;;0.50;0.30;;;;;;;23.39;70.13;99483.09;4981575;28;20497;-53
2022/06/19 00:15:43;;;;;;;0.50;0.20;;;;;;;23.37;71.13;99484.25;4987380;28;20515;-54
2022/06/19 00:18:09;;;;;;;0.50;0.47;;;;;;;23.12;71.85;99491.13;4995759;28;20453;-53
2022/06/19 00:20:38;;;;;;;0.50;0.20;;;;;;;23.03;73.19;99479.31;4995273;28;20540;-53
2022/06/19 00:23:05;;;;;;;0.50;0.20;;;;;;;22.96;72.77;99480.84;4994501;28;20532;-54
2022/06/19 00:25:31;;;;;;;0.50;0.20;;;;;;;22.92;72.63;99480.28;4994346;28;20485;-53
2022/06/19 00:27:58;;;;;;;0.50;0.20;;;;;;;22.99;72.77;99476.00;4982447;28;20450;-54
2022/06/19 00:30:25;;;;;;;0.50;0.20;;;;;;;22.83;74.18;99466.72;4995330;28;20461;-54
2022/06/19 00:32:52;;;;;;;0.93;0.93;;;;;;;22.84;73.89;99458.44;4994919;28;20525;-53
2022/06/19 00:35:18;;;;;;;0.40;0.20;;;;;;;22.85;73.59;99452.03;4995185;28;20457;-54
2022/06/19 00:37:46;;;;;;;0.50;0.30;;;;;;;22.68;74.53;99447.28;4994693;28;20449;-54
2022/06/19 00:40:13;;;;;;;0.47;0.20;;;;;;;22.60;74.66;99439.84;4994689;28;20489;-53
2022/06/19 00:42:40;;;;;;;0.50;0.20;;;;;;;22.60;75.30;99439.00;4990993;28;20478;-53
2022/06/19 00:45:26;;;;;;;0.50;0.20;;;;;;;22.39;76.05;99434.56;4990072;28;20504;-54
2022/06/19 00:47:53;;;;;;;0.50;0.20;;;;;;;22.44;75.69;99436.84;4983427;28;20457;-53
2022/06/19 00:50:32;;;;;;;0.50;0.40;;;;;;;22.46;76.00;99438.41;4993226;28;20511;-53
2022/06/19 00:53:01;;;;;;;0.50;0.20;;;;;;;22.53;76.03;99435.16;4991954;28;20516;-54
2022/06/19 00:55:32;;;;;;;0.50;0.20;;;;;;;22.56;75.81;99441.13;4991066;28;20462;-54
2022/06/19 00:58:09;;;;;;;0.50;0.20;;;;;;;22.75;75.19;99438.47;4976722;28;20540;-53
2022/06/19 01:00:37;;;;;;;0.40;0.20;;;;;;;22.50;76.72;99440.88;4993849;28;20476;-53
2022/06/19 01:03:11;;;;;;;0.40;0.20;;;;;;;22.59;76.36;99451.69;4994189;28;20555;-53
2022/06/19 01:05:42;;;;;;;0.50;0.20;;;;;;;22.41;76.87;99451.53;4982235;28;20824;-54
2022/06/19 01:08:11;;;;;;;0.40;0.20;;;;;;;22.46;77.27;99445.69;4994646;28;20457;-53
2022/06/19 01:10:42;;;;;;;0.50;0.20;;;;;;;21.97;78.32;99439.28;4994094;28;20512;-54
2022/06/19 01:13:11;;;;;;;0.50;0.20;;;;;;;21.92;78.67;99435.25;4990624;28;20486;-55
2022/06/19 01:15:38;;;;;;;0.77;0.77;;;;;;;22.02;78.61;99431.59;4985463;28;20956;-54
2022/06/19 01:18:07;;;;;;;0.50;0.20;;;;;;;21.88;79.24;99440.94;4993808;28;20498;-54
2022/06/19 01:20:36;;;;;;;0.43;0.20;;;;;;;21.84;79.14;99425.97;4994216;28;20868;-53
2022/06/19 01:23:22;;;;;;;0.50;0.20;;;;;;;21.86;78.57;99429.41;4993878;28;20504;-54
2022/06/19 01:25:51;;;;;;;0.50;0.20;;;;;;;21.73;78.95;99434.19;4993992;28;20450;-54
2022/06/19 01:31:26;;;;;;;0.47;0.20;;;;;;;21.17;82.62;99429.16;4989627;28;20458;-53
2022/06/19 01:34:27;;;;;;;0.50;0.20;;;;;;;20.90;84.33;99418.00;4987414;28;20504;-54
2022/06/19 01:37:01;;;;;;;0.50;0.20;;;;;;;21.38;82.56;99431.00;4990666;28;20492;-53
2022/06/19 01:39:34;;;;;;;0.50;0.20;;;;;;;21.54;81.71;99423.28;4993774;28;20683;-54
2022/06/19 01:42:03;;;;;;;0.40;0.20;;;;;;;21.55;81.61;99430.41;4992339;28;20473;-54
2022/06/19 01:44:31;;;;;;;7.00;3.80;;;;;;;21.68;80.96;99422.94;4993640;28;20488;-54
2022/06/19 01:46:59;;;;;;;0.40;0.20;;;;;;;21.64;81.48;99426.00;4993937;28;20477;-54
2022/06/19 01:49:29;;;;;;;0.50;0.20;;;;;;;21.58;81.78;99424.72;4993752;28;20947;-54
2022/06/19 01:51:56;;;;;;;0.50;0.20;;;;;;;21.33;82.34;99417.91;4993234;28;20481;-54
2022/06/19 01:54:28;;;;;;;1.20;1.17;;;;;;;21.43;81.81;99416.09;4993467;28;20477;-54
2022/06/19 01:56:57;;;;;;;0.40;0.20;;;;;;;21.50;81.63;99409.16;4980463;28;20450;-54
2022/06/19 01:59:29;;;;;;;0.43;0.20;;;;;;;21.64;81.12;99410.63;4993495;28;20445;-54
2022/06/19 02:01:58;;;;;;;0.50;0.20;;;;;;;21.45;81.46;99405.16;4993138;28;20543;-53
2022/06/19 02:04:25;;;;;;;0.50;0.20;;;;;;;21.46;81.77;99410.41;4993641;28;20441;-53
2022/06/19 02:06:57;;;;;;;0.40;0.20;;;;;;;21.47;81.51;99412.13;4993366;28;20500;-54
2022/06/19 02:09:23;;;;;;;0.50;0.20;;;;;;;21.24;82.60;99410.53;4990332;28;20460;-54
2022/06/19 02:11:51;;;;;;;0.50;0.20;;;;;;;21.26;82.37;99408.63;4984692;28;20485;-53
2022/06/19 02:14:19;;;;;;;0.50;0.20;;;;;;;21.43;82.11;99416.09;4986334;28;20511;-54
2022/06/19 02:16:48;;;;;;;0.40;0.20;;;;;;;21.12;83.85;99417.03;4992745;28;20480;-54
2022/06/19 02:19:16;;;;;;;0.40;0.20;;;;;;;21.24;82.95;99416.84;4993517;28;20453;-53
2022/06/19 02:21:49;;;;;;;0.40;0.20;;;;;;;21.36;82.50;99428.44;4981571;28;20599;-53
2022/06/19 02:24:19;;;;;;;0.40;0.20;;;;;;;21.05;83.91;99419.38;4993032;28;20450;-53
2022/06/19 02:26:48;;;;;;;0.40;0.20;;;;;;;21.31;83.00;99429.84;4993043;28;20500;-53
2022/06/19 02:29:17;;;;;;;0.40;0.20;;;;;;;21.16;83.14;99422.03;4980255;28;20458;-53
2022/06/19 02:31:48;;;;;;;0.43;0.20;;;;;;;20.89;83.88;99419.84;4991216;28;20544;-53
2022/06/19 02:34:15;;;;;;;0.50;0.20;;;;;;;20.93;83.16;99413.19;4992994;28;20456;-53
2022/06/19 02:36:46;;;;;;;0.40;0.20;;;;;;;20.73;83.88;99402.38;4982453;28;20457;-54
2022/06/19 02:39:12;;;;;;;0.60;0.60;;;;;;;20.97;83.02;99403.84;4990904;28;20446;-53
2022/06/19 02:41:45;;;;;;;0.40;0.20;;;;;;;20.97;83.24;99405.69;4992703;28;20485;-53
2022/06/19 02:44:12;;;;;;;0.40;0.20;;;;;;;20.88;83.97;99406.47;4993003;28;20445;-54
2022/06/19 02:46:38;;;;;;;0.50;0.20;;;;;;;20.88;84.29;99403.78;4992967;28;20453;-53
2022/06/19 02:49:05;;;;;;;0.50;0.20;;;;;;;20.76;84.93;99410.22;4992721;28;20503;-54
2022/06/19 02:51:32;;;;;;;0.50;0.20;;;;;;;20.86;84.47;99405.75;4991146;28;20850;-54
2022/06/19 02:53:58;;;;;;;0.40;0.20;;;;;;;20.82;84.92;99394.31;4986773;28;20568;-54
2022/06/19 02:56:25;;;;;;;0.40;0.20;;;;;;;20.68;85.51;99395.50;4992895;28;20981;-54
2022/06/19 02:58:52;;;;;;;0.50;0.20;;;;;;;20.79;85.15;99396.44;4992796;28;20453;-54
2022/06/19 03:01:18;;;;;;;0.40;0.20;;;;;;;20.63;85.09;99395.03;4992315;28;20821;-54
2022/06/19 03:03:45;;;;;;;0.40;0.20;;;;;;;20.78;85.03;99390.19;4992538;28;20892;-54
2022/06/19 03:06:11;;;;;;;0.70;0.70;;;;;;;20.67;85.48;99387.53;4992976;28;20449;-53
2022/06/19 03:08:38;;;;;;;0.50;0.20;;;;;;;20.95;84.24;99383.34;4992931;28;20457;-54
2022/06/19 03:11:06;;;;;;;0.40;0.20;;;;;;;20.78;84.83;99368.56;4992345;28;20549;-54
2022/06/19 03:13:33;;;;;;;0.50;0.20;;;;;;;20.72;85.76;99369.13;4979500;28;20964;-53
2022/06/19 03:16:07;;;;;;;0.40;0.20;;;;;;;20.79;85.23;99354.06;4992321;28;20457;-54
2022/06/19 03:18:36;;;;;;;0.40;0.20;;;;;;;20.84;84.67;99372.63;4988346;28;20828;-54
2022/06/19 03:21:03;;;;;;;0.40;0.20;;;;;;;20.62;85.71;99366.31;4992209;28;20536;-54
2022/06/19 03:23:30;;;;;;;0.43;0.23;;;;;;;20.78;85.26;99363.16;4992692;28;20469;-53
2022/06/19 03:25:56;;;;;;;0.50;0.20;;;;;;;20.76;84.99;99365.16;4990777;28;21013;-53
2022/06/19 03:28:23;;;;;;;0.40;0.20;;;;;;;20.76;85.70;99377.81;4980912;28;20492;-53
2022/06/19 03:30:52;;;;;;;0.40;0.20;;;;;;;20.78;85.45;99368.56;4992008;28;21002;-53
2022/06/19 03:33:19;;;;;;;0.40;0.20;;;;;;;20.81;85.46;99375.56;4991328;28;20556;-54
2022/06/19 03:35:46;;;;;;;0.40;0.20;;;;;;;20.94;85.00;99377.06;4992414;28;20516;-54
2022/06/19 03:38:12;;;;;;;0.40;0.20;;;;;;;20.94;85.72;99377.06;4992557;28;20886;-54
2022/06/19 03:40:39;;;;;;;4.00;1.37;;;;;;;21.07;84.43;99387.69;4990132;28;20453;-54
2022/06/19 03:43:05;;;;;;;0.40;0.20;;;;;;;20.95;85.06;99383.34;4978929;28;20506;-54
2022/06/19 03:45:32;;;;;;;0.40;0.20;;;;;;;21.01;85.00;99382.81;4990575;28;20504;-54
2022/06/19 03:47:59;;;;;;;0.40;0.20;;;;;;;20.92;85.43;99386.31;4996275;28;20461;-54
2022/06/19 03:50:25;;;;;;;0.40;0.20;;;;;;;20.97;85.31;99390.34;4995376;28;20449;-53
2022/06/19 03:52:52;;;;;;;0.40;0.20;;;;;;;21.04;85.33;99387.09;4995919;28;20544;-54
2022/06/19 03:55:19;;;;;;;0.40;0.20;;;;;;;20.87;85.64;99397.50;4995900;28;20709;-53
2022/06/19 03:57:45;;;;;;;0.40;0.20;;;;;;;21.01;85.42;99390.94;4995828;28;21001;-53
2022/06/19 04:00:15;;;;;;;0.40;0.30;;;;;;;20.72;86.69;99387.16;4995856;28;20450;-53
2022/06/19 04:02:43;;;;;;;0.40;0.20;;;;;;;20.67;86.95;99382.13;4995296;28;20473;-54
2022/06/19 04:05:12;;;;;;;0.50;0.20;;;;;;;20.97;85.75;99390.34;4995728;28;20459;-53
2022/06/19 04:07:46;;;;;;;0.40;0.20;;;;;;;20.52;87.75;99403.19;4995696;28;20453;-53
2022/06/19 04:10:15;;;;;;;0.40;0.20;;;;;;;20.72;86.61;99389.88;4995296;28;20601;-54
2022/06/19 04:12:45;;;;;;;0.40;0.20;;;;;;;20.58;87.46;99394.59;4995344;28;20493;-56
2022/06/19 04:15:13;;;;;;;0.40;0.20;;;;;;;20.41;88.36;99401.38;4983308;28;20500;-53
2022/06/19 04:17:40;;;;;;;0.40;0.20;;;;;;;20.76;86.84;99397.56;4995103;28;20515;-54
2022/06/19 04:20:08;;;;;;;0.40;0.20;;;;;;;20.85;87.15;99402.19;4995222;28;20941;-53
2022/06/19 04:22:36;;;;;;;0.40;0.30;;;;;;;20.98;86.02;99399.31;4995193;28;20526;-53
2022/06/19 04:25:05;;;;;;;0.40;0.20;;;;;;;21.23;85.14;99401.56;4995238;28;20481;-53
2022/06/19 04:27:32;;;;;;;0.40;0.20;;;;;;;21.48;84.13;99394.06;4993604;28;20453;-53
2022/06/19 04:29:59;;;;;;;1.53;1.53;;;;;;;21.94;82.51;99382.72;4983611;28;20508;-54
2022/06/19 04:32:25;;;;;;;0.40;0.20;;;;;;;22.35;80.57;99368.16;4994963;28;20524;-54
2022/06/19 04:34:52;;;;;;;0.40;0.30;;;;;;;22.87;78.36;99371.41;4995125;28;20512;-54
2022/06/19 04:37:19;;;;;;;0.50;0.40;;;;;;;22.66;79.27;99368.00;4994968;28;20457;-54
2022/06/19 04:39:46;;;;;;;0.40;0.20;;;;;;;23.24;77.22;99374.22;4994746;28;20910;-54
2022/06/19 04:42:12;;;;;;;0.40;0.20;;;;;;;23.31;76.20;99371.78;4981977;28;20525;-54
2022/06/19 04:44:39;;;;;;;0.50;0.20;;;;;;;23.69;74.54;99368.06;4989266;28;20488;-53
2022/06/19 04:47:06;;;;;;;0.40;0.20;;;;;;;24.00;73.32;99367.78;4995037;28;20450;-54
2022/06/19 04:49:32;;;;;;;0.40;0.20;;;;;;;24.21;72.47;99368.34;4994999;28;20587;-54
2022/06/19 04:51:59;;;;;;;0.40;0.20;;;;;;;24.04;73.92;99355.59;4994217;28;20477;-54
2022/06/19 04:54:25;;;;;;;0.40;0.20;;;;;;;24.14;73.06;99364.56;4994887;28;20493;-54
2022/06/19 04:56:52;;;;;;;0.40;0.30;;;;;;;24.29;72.95;99367.59;4994053;28;20499;-54
2022/06/19 04:59:19;;;;;;;0.40;0.20;;;;;;;24.06;74.80;99359.88;4994428;28;20485;-54
2022/06/19 05:01:46;;;;;;;0.40;0.20;;;;;;;24.58;71.72;99364.69;4981748;28;21030;-53
2022/06/19 05:04:13;;;;;;;1.17;1.07;;;;;;;24.90;69.85;99364.94;4993965;28;20445;-54
2022/06/19 05:06:40;;;;;;;1.17;1.03;;;;;;;25.12;68.33;99362.78;4992514;28;20462;-54
2022/06/19 05:09:06;;;;;;;0.73;0.73;;;;;;;25.34;68.06;99356.78;4987356;28;20450;-52
2022/06/19 05:11:34;;;;;;;0.40;0.20;;;;;;;25.78;66.86;99370.31;4990714;28;20529;-53
2022/06/19 05:14:01;;;;;;;0.40;0.20;;;;;;;25.78;67.09;99371.19;4984869;28;20543;-53
2022/06/19 05:16:28;;;;;;;0.40;0.20;;;;;;;26.17;66.19;99373.34;4987459;28;20553;-54
2022/06/19 05:18:56;;;;;;;0.50;0.43;;;;;;;26.40;65.82;99369.00;4992866;28;20454;-54
2022/06/19 05:21:24;;;;;;;0.40;0.20;;;;;;;26.26;65.75;99354.13;4993726;28;20520;-54
2022/06/19 05:23:52;;;;;;;0.40;0.20;;;;;;;26.40;66.60;99358.09;4994424;28;20520;-54
2022/06/19 05:26:25;;;;;;;0.40;0.20;;;;;;;26.34;66.87;99358.75;4994099;28;21029;-54
2022/06/19 05:28:53;;;;;;;0.40;0.20;;;;;;;26.44;65.52;99373.09;4994244;28;20500;-54
2022/06/19 05:31:20;;;;;;;0.50;0.20;;;;;;;26.59;65.34;99378.75;4993510;28;20453;-54
2022/06/19 05:33:47;;;;;;;0.40;0.20;;;;;;;26.71;64.08;99380.09;4993902;28;20488;-54
2022/06/19 05:36:15;;;;;;;11.30;2.43;;;;;;;26.88;64.63;99370.06;4994178;28;20450;-54
2022/06/19 05:38:42;;;;;;;0.50;0.30;;;;;;;27.42;58.75;99373.13;4993859;28;20454;-55
2022/06/19 05:41:09;;;;;;;0.40;0.20;;;;;;;27.55;57.95;99365.22;4992817;28;20465;-54
2022/06/19 05:43:36;;;;;;;0.47;0.30;;;;;;;27.55;57.07;99364.34;4993749;28;20449;-55
2022/06/19 05:46:06;;;;;;;0.40;0.20;;;;;;;27.60;56.68;99359.22;4993766;28;20449;-54
2022/06/19 05:48:34;;;;;;;0.50;0.30;;;;;;;28.00;56.70;99366.44;4993708;28;20592;-54
2022/06/19 05:51:10;;;;;;;0.40;0.23;;;;;;;28.27;55.16;99366.00;5016228;28;20508;-54
2022/06/19 05:53:41;;;;;;;0.40;0.30;;;;;;;28.49;53.87;99366.16;4990917;28;21004;-54
2022/06/19 05:56:08;;;;;;;0.50;0.20;;;;;;;28.65;54.61;99365.22;4984701;28;20466;-54
2022/06/19 05:58:36;;;;;;;0.50;0.30;;;;;;;28.70;54.86;99371.84;4989255;28;20565;-54
2022/06/19 06:01:04;;;;;;;0.40;0.30;;;;;;;29.27;53.13;99373.25;4989016;28;20437;-54
2022/06/19 06:03:32;;;;;;;0.40;0.20;;;;;;;28.93;55.70;99369.13;4992442;28;20481;-54
2022/06/19 06:06:04;;;;;;;0.50;0.40;;;;;;;29.45;55.20;99369.09;4983959;28;20532;-54
2022/06/19 06:08:33;;;;;;;0.50;0.30;;;;;;;29.70;52.23;99369.72;4979146;28;20543;-54
2022/06/19 06:11:00;;;;;;;0.40;0.20;;;;;;;29.72;53.31;99364.91;4996618;28;20510;-55
2022/06/19 06:13:29;;;;;;;0.50;0.30;;;;;;;29.48;54.25;99368.78;4992592;28;20548;-54
2022/06/19 06:15:57;;;;;;;0.40;0.20;;;;;;;29.70;53.37;99363.38;4993146;28;20954;-55
2022/06/19 06:18:24;;;;;;;0.40;0.30;;;;;;;29.81;53.02;99360.19;4991804;28;20451;-55
2022/06/19 06:21:00;;;;;;;0.40;0.30;;;;;;;29.71;52.42;99352.25;4986615;28;20879;-54
2022/06/19 06:23:27;;;;;;;0.40;0.20;;;;;;;30.50;50.71;99349.66;4981138;28;20891;-55
2022/06/19 06:26:06;;;;;;;0.40;0.30;;;;;;;30.51;50.54;99356.81;4992649;28;20473;-54
2022/06/19 06:28:33;;;;;;;0.40;0.30;;;;;;;30.83;49.96;99350.00;4993111;28;20935;-55
2022/06/19 06:30:59;;;;;;;0.60;0.60;;;;;;;30.91;49.21;99355.34;4992890;28;20453;-55
2022/06/19 06:33:26;;;;;;;0.40;0.27;;;;;;;30.91;50.42;99362.75;4992985;28;20493;-54
2022/06/19 06:35:54;;;;;;;0.40;0.20;;;;;;;30.94;50.25;99360.44;4992694;28;20453;-54
2022/06/19 06:38:21;;;;;;;0.40;0.20;;;;;;;31.00;50.40;99349.72;4983786;28;20486;-54
2022/06/19 06:40:48;;;;;;;0.40;0.30;;;;;;;31.25;50.16;99353.78;4991373;28;20463;-54
2022/06/19 06:43:16;;;;;;;0.40;0.20;;;;;;;31.51;50.44;99356.66;4992938;28;20473;-55
2022/06/19 06:45:42;;;;;;;0.50;0.20;;;;;;;31.42;50.11;99346.06;4988637;28;20465;-55
2022/06/19 06:48:10;;;;;;;0.40;0.30;;;;;;;31.43;49.76;99348.59;4984227;28;20963;-55
2022/06/19 06:50:38;;;;;;;0.40;0.30;;;;;;;31.39;49.00;99343.72;4992727;28;20946;-55
2022/06/19 06:53:06;;;;;;;0.40;0.20;;;;;;;31.25;48.87;99353.78;4992603;28;20493;-55
2022/06/19 06:55:37;;;;;;;0.40;0.30;;;;;;;31.14;48.78;99343.28;4992808;28;20942;-54
2022/06/19 06:58:04;;;;;;;0.40;0.30;;;;;;;31.19;48.90;99352.66;4982427;28;20455;-54
2022/06/19 07:00:31;;;;;;;0.40;0.30;;;;;;;31.19;49.23;99349.91;4992186;28;20859;-54
2022/06/19 07:02:59;;;;;;;0.40;0.30;;;;;;;31.38;47.78;99350.25;4992681;28;20481;-55
2022/06/19 07:05:27;;;;;;;0.40;0.30;;;;;;;31.59;47.72;99355.69;4992530;28;20454;-54
2022/06/19 07:07:53;;;;;;;0.60;0.57;;;;;;;31.60;47.39;99348.28;4992653;28;20450;-56
2022/06/19 07:10:20;;;;;;;0.40;0.30;;;;;;;31.93;46.90;99345.72;4985138;28;20947;-55
2022/06/19 07:12:48;;;;;;;0.40;0.30;;;;;;;31.76;47.60;99340.56;4992634;28;20547;-55
2022/06/19 07:15:15;;;;;;;0.40;0.30;;;;;;;31.99;46.82;99337.50;4992846;28;20454;-55
2022/06/19 07:17:42;;;;;;;0.40;0.30;;;;;;;31.93;46.61;99343.81;4992211;28;21017;-55
2022/06/19 07:20:09;;;;;;;0.50;0.40;;;;;;;32.02;46.03;99348.09;4995192;28;20453;-55
2022/06/19 07:22:36;;;;;;;0.43;0.40;;;;;;;32.38;45.94;99344.25;4996678;28;20473;-55
2022/06/19 07:25:04;;;;;;;0.40;0.30;;;;;;;32.31;45.43;99346.09;4996470;28;20931;-55
2022/06/19 07:27:31;;;;;;;0.40;0.30;;;;;;;32.75;45.12;99350.22;4996139;28;20456;-55
2022/06/19 07:29:57;;;;;;;0.40;0.20;;;;;;;32.93;43.66;99351.34;4996554;28;20449;-54
2022/06/19 07:32:24;;;;;;;0.40;0.30;;;;;;;33.01;43.69;99350.25;4994493;28;20481;-55
2022/06/19 07:34:50;;;;;;;0.40;0.30;;;;;;;32.95;43.85;99357.47;4985173;28;20489;-54
2022/06/19 07:37:17;;;;;;;0.40;0.30;;;;;;;32.80;44.39;99365.06;4994121;28;21016;-54
2022/06/19 07:39:44;;;;;;;0.40;0.30;;;;;;;32.80;44.27;99362.31;4985312;28;20943;-55
2022/06/19 07:42:11;;;;;;;0.40;0.20;;;;;;;32.78;44.22;99358.06;4996025;28;20505;-55
2022/06/19 07:44:39;;;;;;;0.40;0.30;;;;;;;32.95;44.28;99349.22;4996111;28;20950;-55
2022/06/19 07:50:13;;;;;;;0.40;0.30;;;;;;;33.02;42.87;99343.69;4996152;28;20453;-55
2022/06/19 07:52:46;;;;;;;0.40;0.30;;;;;;;32.95;43.55;99351.13;4984222;28;20465;-55
2022/06/19 07:55:20;;;;;;;0.40;0.30;;;;;;;33.51;42.40;99357.03;4995811;28;20488;-55
2022/06/19 07:57:47;;;;;;;0.40;0.30;;;;;;;33.22;42.75;99339.03;4995709;28;20519;-55
2022/06/19 08:00:20;;;;;;;0.40;0.30;;;;;;;33.54;41.82;99329.03;4995637;28;20977;-55
2022/06/19 08:02:49;;;;;;;0.40;0.30;;;;;;;33.32;42.39;99335.84;4987008;28;20835;-55
2022/06/19 08:05:17;;;;;;;0.43;0.30;;;;;;;33.42;42.19;99327.16;4995426;28;20970;-55
2022/06/19 08:07:44;;;;;;;0.40;0.30;;;;;;;33.99;41.09;99325.50;4995435;28;20454;-55
2022/06/19 08:10:17;;;;;;;1.07;0.50;;;;;;;34.08;41.62;99321.44;4995458;28;20484;-55
2022/06/19 08:12:44;;;;;;;0.40;0.30;;;;;;;33.88;40.96;99328.97;4995819;28;20504;-55
2022/06/19 08:15:11;;;;;;;0.40;0.30;;;;;;;33.72;40.61;99324.75;4983173;28;20493;-55
2022/06/19 08:17:37;;;;;;;0.40;0.30;;;;;;;34.23;40.71;99324.75;4994958;28;20461;-55
2022/06/19 08:20:05;;;;;;;9.87;6.43;;;;;;;34.42;39.97;99326.63;4995752;28;20449;-55
2022/06/19 08:22:31;;;;;;;0.40;0.30;;;;;;;34.08;38.48;99330.56;4995142;28;20509;-55
2022/06/19 08:24:58;;;;;;;0.53;0.50;;;;;;;34.11;38.58;99340.31;4995626;28;20882;-54
2022/06/19 08:27:25;;;;;;;0.40;0.30;;;;;;;34.32;37.31;99344.69;4995105;28;20458;-55
2022/06/19 08:29:51;;;;;;;0.40;0.30;;;;;;;34.56;37.07;99337.56;4994729;28;20578;-55
2022/06/19 08:32:18;;;;;;;0.40;0.30;;;;;;;34.63;37.22;99335.59;4994844;28;20473;-55
2022/06/19 08:34:45;;;;;;;0.50;0.50;;;;;;;34.07;38.24;99341.84;4995288;28;20489;-55
2022/06/19 08:37:12;;;;;;;0.40;0.30;;;;;;;34.78;38.28;99349.09;4994717;28;20446;-55
2022/06/19 08:39:39;;;;;;;0.50;0.40;;;;;;;34.82;36.82;99333.78;4995126;28;20461;-55
2022/06/19 08:42:34;;;;;;;0.40;0.30;;;;;;;34.87;37.29;99340.34;4994934;28;20480;-55
2022/06/19 08:45:16;;;;;;;0.40;0.30;;;;;;;34.75;36.52;99339.34;4995293;28;20428;-55
2022/06/19 08:48:08;;;;;;;0.40;0.30;;;;;;;35.18;36.37;99330.28;4982766;28;20863;-55
2022/06/19 08:51:09;;;;;;;0.40;0.30;;;;;;;34.72;37.11;99340.63;4994822;28;20446;-55
2022/06/19 08:53:54;;;;;;;0.40;0.30;;;;;;;34.83;36.19;99352.88;4994919;28;20463;-55
2022/06/19 08:56:35;;;;;;;0.93;0.93;;;;;;;34.88;36.97;99338.41;4995085;28;20445;-55
2022/06/19 08:59:29;;;;;;;0.40;0.30;;;;;;;34.80;37.35;99346.94;4994353;28;20463;-55
2022/06/19 09:02:19;;;;;;;0.50;0.50;;;;;;;34.94;36.87;99352.16;4981342;28;20518;-55
2022/06/19 09:08:04;;;;;;;0.40;0.30;;;;;;;35.23;36.75;99374.69;4988149;28;20461;-55
2022/06/19 09:10:51;;;;;;;0.40;0.30;;;;;;;35.44;36.04;99379.84;4994154;28;20806;-55
2022/06/19 09:13:35;;;;;;;0.40;0.30;;;;;;;35.23;37.41;99371.94;4990129;28;20513;-55
2022/06/19 09:16:26;;;;;;;0.40;0.30;;;;;;;35.13;36.64;99366.91;4988986;28;20498;-55
2022/06/19 09:19:14;;;;;;;0.40;0.30;;;;;;;35.10;36.72;99377.56;4984063;28;20458;-55
2022/06/19 09:22:02;;;;;;;0.40;0.30;;;;;;;34.91;37.18;99374.72;4981652;28;20532;-55
2022/06/19 09:24:51;;;;;;;0.40;0.30;;;;;;;35.18;36.93;99375.34;4994249;28;20913;-55
2022/06/19 09:27:24;;;;;;;0.40;0.30;;;;;;;35.47;36.10;99393.19;4993946;28;20792;-55
2022/06/19 09:30:04;;;;;;;0.40;0.30;;;;;;;35.28;36.65;99403.34;4982051;28;20569;-55
2022/06/19 09:32:33;;;;;;;0.40;0.30;;;;;;;35.49;36.51;99396.56;4993738;28;20501;-55
2022/06/19 09:35:31;;;;;;;0.40;0.30;;;;;;;35.88;35.34;99394.50;4994050;28;20464;-55
2022/06/19 09:38:05;;;;;;;0.40;0.30;;;;;;;35.65;36.76;99386.03;4977315;28;20432;-55
2022/06/19 09:40:36;;;;;;;0.40;0.30;;;;;;;35.65;36.29;99395.16;4989608;28;20420;-55
2022/06/19 09:43:12;;;;;;;0.40;0.30;;;;;;;36.02;36.31;99395.19;4993875;28;20525;-55
2022/06/19 09:45:52;;;;;;;0.73;0.70;;;;;;;35.58;36.71;99386.06;4993763;28;20833;-55
2022/06/19 09:48:27;;;;;;;0.40;0.30;;;;;;;35.60;36.07;99393.06;4993969;28;20453;-54
2022/06/19 09:51:04;;;;;;;0.40;0.30;;;;;;;35.78;36.34;99386.72;4994154;28;20929;-55
2022/06/19 09:53:36;;;;;;;0.40;0.30;;;;;;;35.69;35.98;99384.47;4993553;28;20986;-55
2022/06/19 09:56:31;;;;;;;0.40;0.23;;;;;;;35.98;35.79;99383.75;4993243;28;20463;-55
2022/06/19 09:59:37;;;;;;;0.40;0.30;;;;;;;35.78;35.59;99378.44;4993531;28;20501;-55
2022/06/19 10:02:18;;;;;;;0.40;0.30;;;;;;;35.78;36.77;99380.34;4987034;28;20482;-55
2022/06/19 10:05:02;;;;;;;0.40;0.30;;;;;;;36.00;36.27;99380.75;4986221;28;20453;-55
2022/06/19 10:07:38;;;;;;;0.40;0.30;;;;;;;35.91;35.34;99382.97;4991927;28;20489;-55
2022/06/19 10:10:24;;;;;;;0.40;0.30;;;;;;;36.08;35.41;99388.75;4993252;28;20416;-55
2022/06/19 10:12:53;;;;;;;0.40;0.30;;;;;;;36.11;35.35;99383.59;4980267;28;20483;-56
2022/06/19 10:15:30;;;;;;;0.40;0.30;;;;;;;36.08;36.44;99386.84;4993371;28;20517;-55
2022/06/19 10:18:26;;;;;;;0.40;0.30;;;;;;;36.30;34.96;99386.34;4993627;28;20457;-55
2022/06/19 10:21:09;;;;;;;0.40;0.30;;;;;;;36.40;35.06;99373.66;4996671;28;20457;-55
2022/06/19 10:23:59;;;;;;;0.40;0.30;;;;;;;36.37;35.02;99379.69;4993352;28;20452;-56
2022/06/19 10:26:49;;;;;;;0.60;0.60;;;;;;;36.37;35.43;99379.69;4993093;28;20481;-55
2022/06/19 10:29:46;;;;;;;0.40;0.27;;;;;;;36.49;35.04;99386.13;4993156;28;20461;-55
2022/06/19 10:32:27;;;;;;;0.40;0.30;;;;;;;36.42;35.49;99381.72;4993215;28;20990;-55
2022/06/19 10:35:06;;;;;;;0.40;0.30;;;;;;;36.15;35.58;99378.44;4992685;28;20481;-55
2022/06/19 10:37:41;;;;;;;1.83;1.73;;;;;;;36.37;34.04;99376.06;4993026;28;20445;-55
2022/06/19 10:40:37;;;;;;;0.40;0.30;;;;;;;36.41;34.89;99380.88;4993021;28;20412;-55
2022/06/19 10:43:24;;;;;;;0.40;0.30;;;;;;;36.45;35.04;99392.34;4983211;28;20524;-55
2022/06/19 10:45:54;;;;;;;0.40;0.30;;;;;;;36.40;33.62;99389.44;4992377;28;20963;-55
2022/06/19 10:48:37;;;;;;;0.40;0.20;;;;;;;36.62;33.84;99398.94;4992920;28;20428;-55
2022/06/19 10:51:10;;;;;;;0.40;0.30;;;;;;;36.00;35.28;99402.91;4984489;28;20437;-55
2022/06/19 10:53:58;;;;;;;0.40;0.30;;;;;;;35.27;37.96;99404.41;4988887;28;20474;-55
2022/06/19 10:56:28;;;;;;;0.40;0.30;;;;;;;34.85;38.20;99400.47;4985547;28;20939;-55
2022/06/19 10:58:55;;;;;;;0.40;0.30;;;;;;;34.36;38.94;99403.88;4992662;28;20582;-55
2022/06/19 11:04:24;;;;;;;0.40;0.30;;;;;;;34.07;40.67;99397.00;4992924;28;20489;-55
2022/06/19 11:06:54;;;;;;;0.40;0.30;;;;;;;33.97;41.08;99399.38;4979603;28;20449;-55
2022/06/19 11:09:32;;;;;;;0.40;0.30;;;;;;;33.51;41.28;99392.88;4992776;28;20446;-55
2022/06/19 11:12:07;;;;;;;0.40;0.30;;;;;;;33.06;42.46;99405.59;4998492;28;20462;-54
2022/06/19 11:14:42;;;;;;;0.40;0.37;;;;;;;33.41;42.33;99399.88;4987288;28;20531;-54
2022/06/19 11:17:16;;;;;;;0.40;0.30;;;;;;;33.50;42.53;99391.19;4986859;28;20484;-55
2022/06/19 11:19:46;;;;;;;0.40;0.20;;;;;;;33.70;42.56;99399.41;4990868;28;20512;-54
2022/06/19 11:22:22;;;;;;;0.40;0.30;;;;;;;33.11;43.44;99397.53;4984470;28;20505;-54
2022/06/19 11:24:49;;;;;;;0.40;0.30;;;;;;;33.25;43.02;99388.19;4989546;28;20508;-54
2022/06/19 11:27:24;;;;;;;0.40;0.27;;;;;;;33.50;43.37;99387.59;4992546;28;20448;-54
2022/06/19 11:29:54;;;;;;;0.40;0.30;;;;;;;33.51;42.90;99395.63;5019544;28;20446;-55
2022/06/19 11:32:24;;;;;;;0.40;0.27;;;;;;;33.07;43.88;99396.25;4992780;28;20474;-54
2022/06/19 11:35:07;;;;;;;0.40;0.20;;;;;;;33.06;43.52;99399.22;4992163;28;20567;-54
2022/06/19 11:37:52;;;;;;;0.40;0.30;;;;;;;33.03;43.31;99391.38;4992589;28;20445;-54
2022/06/19 11:40:29;;;;;;;0.40;0.30;;;;;;;33.11;43.40;99385.66;4986207;28;20869;-55
2022/06/19 11:43:00;;;;;;;0.40;0.20;;;;;;;33.35;43.22;99392.47;4992457;28;21061;-54
2022/06/19 11:45:28;;;;;;;0.40;0.20;;;;;;;33.04;43.23;99391.19;4992306;28;20450;-54
2022/06/19 11:47:55;;;;;;;0.40;0.30;;;;;;;33.36;43.73;99399.69;4992251;28;20449;-55
2022/06/19 11:50:32;;;;;;;0.40;0.23;;;;;;;33.42;42.57;99396.91;4992190;28;20449;-55
2022/06/19 11:53:11;;;;;;;0.40;0.20;;;;;;;33.31;42.88;99392.03;4991432;28;21036;-54
2022/06/19 11:55:42;;;;;;;0.40;0.30;;;;;;;33.15;42.50;99385.00;4986888;28;20485;-55
2022/06/19 11:58:34;;;;;;;0.40;0.20;;;;;;;33.27;42.89;99388.81;4992476;28;20449;-54
2022/06/19 12:01:09;;;;;;;0.40;0.20;;;;;;;33.34;42.27;99388.88;4992121;28;20997;-55
2022/06/19 12:03:44;;;;;;;0.40;0.30;;;;;;;33.03;43.03;99394.97;4992109;28;20462;-54
2022/06/19 12:06:13;;;;;;;0.40;0.30;;;;;;;33.11;42.69;99383.75;4993297;28;20485;-55